Time;durP1;ratioP1;P1;durP2;ratioP2;P2;SDS_P1;SDS_P2;PMS_P1;PMS_P2;Temp;Humidity;BMP_temperature;BMP_pressure;BME280_temperature;BME280_humidity;BME280_pressure;Samples;Min_cycle;Max_cycle;Signal;HPM_P1;HPM_P2
2024/01/31 00:02:51;;;;;;;;;;;;;;;;;;8432531;28;19926;-82
2024/01/31 00:06:54;;;;;;;;;;;;;;;;;;8432219;28;20376;-82
2024/01/31 00:10:58;;;;;;;;;;;;;;;;;;8432349;28;20407;-82
2024/01/31 00:15:00;;;;;;;;;;;;;;;;;;8432356;28;19920;-82
2024/01/31 00:19:02;;;;;;;;;;;;;;;;;;8432033;28;19952;-82
2024/01/31 00:23:06;;;;;;;;;;;;;;;;;;8431973;28;19946;-82
2024/01/31 00:27:08;;;;;;;;;;;;;;;;;;8431761;28;20370;-82
2024/01/31 00:31:10;;;;;;;;;;;;;;;;;;8431569;28;19927;-82
2024/01/31 00:35:12;;;;;;;;;;;;;;;;;;8431804;28;19977;-82
2024/01/31 00:39:16;;;;;;;;;;;;;;;;;;8431583;28;20018;-82
2024/01/31 00:43:24;;;;;;;;;;;;;;;;;;8431496;28;19924;-82
2024/01/31 00:47:26;;;;;;;;;;;;;;;;;;8431223;28;19920;-81
2024/01/31 00:51:28;;;;;;;;;;;;;;;;;;8431241;28;19927;-81
2024/01/31 00:55:31;;;;;;;;;;;;;;;;;;8431193;28;19920;-81
2024/01/31 00:59:33;;;;;;;;;;;;;;;;;;8431112;28;20304;-82
2024/01/31 01:03:35;;;;;;;;;;;;;;;;;;8430922;28;19926;-81
2024/01/31 01:07:38;;;;;;;;;;;;;;;;;;8430646;28;20380;-81
2024/01/31 01:11:42;;;;;;;;;;;;;;;;;;8430879;28;19920;-82
2024/01/31 01:15:44;;;;;;;;;;;;;;;;;;8430846;28;19977;-82
2024/01/31 01:19:46;;;;;;;;;;;;;;;;;;8430552;28;20015;-82
2024/01/31 01:23:48;;;;;;;;;;;;;;;;;;8430532;28;20414;-82
2024/01/31 01:27:51;;;;;;;;;;;;;;;;;;8430620;28;19927;-82
2024/01/31 01:31:53;;;;;;;;;;;;;;;;;;8430404;28;19926;-82
2024/01/31 01:36:16;;;;;;;;;;;;;;;;;;8430339;28;19955;-82
2024/01/31 01:40:18;;;;;;;;;;;;;;;;;;8430080;28;19924;-82
2024/01/31 01:44:21;;;;;;;;;;;;;;;;;;8429928;28;19920;-82
2024/01/31 01:48:23;;;;;;;;;;;;;;;;;;8429971;28;20352;-82
2024/01/31 01:52:25;;;;;;;;;;;;;;;;;;8430531;28;19920;-83
2024/01/31 01:56:27;;;;;;;;;;;;;;;;;;8430044;28;19927;-82
2024/01/31 02:00:32;;;;;;;;;;;;;;;;;;8429905;28;19943;-82
2024/01/31 02:04:35;;;;;;;;;;;;;;;;;;8429811;28;19919;-82
2024/01/31 02:08:37;;;;;;;;;;;;;;;;;;8430002;28;19927;-82
2024/01/31 02:12:39;;;;;;;;;;;;;;;;;;8429857;28;19967;-82
2024/01/31 02:16:45;;;;;;;;;;;;;;;;;;8430902;28;19942;-82
2024/01/31 02:20:47;;;;;;;;;;;;;;;;;;8435729;28;19973;-82
2024/01/31 02:24:50;;;;;;;;;;;;;;;;;;8435275;28;19971;-82
2024/01/31 02:28:52;;;;;;;;;;;;;;;;;;8435480;28;19920;-82
2024/01/31 02:32:56;;;;;;;;;;;;;;;;;;8435071;28;19920;-82
2024/01/31 02:36:58;;;;;;;;;;;;;;;;;;8435305;28;19920;-82
2024/01/31 02:41:01;;;;;;;;;;;;;;;;;;8435145;28;20007;-82
2024/01/31 02:45:03;;;;;;;;;;;;;;;;;;8435047;28;19970;-82
2024/01/31 02:49:07;;;;;;;;;;;;;;;;;;8434511;28;20413;-83
2024/01/31 02:53:09;;;;;;;;;;;;;;;;;;8434697;28;19924;-82
2024/01/31 02:57:12;;;;;;;;;;;;;;;;;;8434706;28;20014;-83
2024/01/31 03:01:14;;;;;;;;;;;;;;;;;;8434233;28;19955;-82
2024/01/31 03:05:16;;;;;;;;;;;;;;;;;;8434380;28;20011;-82
2024/01/31 03:09:18;;;;;;;;;;;;;;;;;;8434137;28;19923;-83
2024/01/31 03:13:21;;;;;;;;;;;;;;;;;;8434084;28;20265;-83
2024/01/31 03:17:23;;;;;;;;;;;;;;;;;;8434010;28;19970;-82
2024/01/31 03:21:25;;;;;;;;;;;;;;;;;;8416372;28;19926;-83
2024/01/31 03:25:27;;;;;;;;;;;;;;;;;;8433877;28;20014;-83
2024/01/31 03:29:30;;;;;;;;;;;;;;;;;;8433650;28;20399;-83
2024/01/31 03:33:32;;;;;;;;;;;;;;;;;;8433473;28;19920;-83
2024/01/31 03:37:34;;;;;;;;;;;;;;;;;;8433515;28;19920;-83
2024/01/31 03:41:43;;;;;;;;;;;;;;;;;;8433453;28;19927;-83
2024/01/31 03:45:46;;;;;;;;;;;;;;;;;;8433093;28;19920;-83
2024/01/31 03:49:49;;;;;;;;;;;;;;;;;;8433092;28;19924;-83
2024/01/31 03:53:51;;;;;;;;;;;;;;;;;;8414985;28;20288;-83
2024/01/31 03:57:53;;;;;;;;;;;;;;;;;;8432878;28;19969;-83
2024/01/31 04:01:56;;;;;;;;;;;;;;;;;;8432506;28;19919;-83
2024/01/31 04:05:59;;;;;;;;;;;;;;;;;;8432369;28;19931;-83
2024/01/31 04:10:01;;;;;;;;;;;;;;;;;;8432398;28;19920;-84
2024/01/31 04:14:03;;;;;;;;;;;;;;;;;;8432422;28;19978;-84
2024/01/31 04:18:36;;;;;;;;;;;;;;;;;;8432327;28;19927;-84
2024/01/31 04:22:39;;;;;;;;;;;;;;;;;;8432040;28;20368;-82
2024/01/31 04:26:44;;;;;;;;;;;;;;;;;;8432044;28;19920;-83
2024/01/31 04:30:46;;;;;;;;;;;;;;;;;;8431860;28;20453;-82
2024/01/31 04:34:48;;;;;;;;;;;;;;;;;;8431623;28;19973;-82
2024/01/31 04:38:51;;;;;;;;;;;;;;;;;;8431327;28;19946;-82
2024/01/31 04:42:53;;;;;;;;;;;;;;;;;;8430999;28;20503;-82
2024/01/31 04:46:55;;;;;;;;;;;;;;;;;;8430508;28;20030;-82
2024/01/31 04:50:57;;;;;;;;;;;;;;;;;;8431318;28;19934;-82
2024/01/31 04:55:00;;;;;;;;;;;;;;;;;;8431134;28;19927;-82
2024/01/31 04:59:02;;;;;;;;;;;;;;;;;;8431008;28;19924;-82
2024/01/31 05:07:55;;;;;;;;;;;;;;;;;;8430945;28;19920;-83
2024/01/31 05:11:59;;;;;;;;;;;;;;;;;;8431018;28;19927;-82
2024/01/31 05:16:01;;;;;;;;;;;;;;;;;;8431028;28;19920;-82
2024/01/31 05:20:03;;;;;;;;;;;;;;;;;;8430825;28;20355;-82
2024/01/31 05:24:05;;;;;;;;;;;;;;;;;;8430277;28;20013;-83
2024/01/31 05:28:09;;;;;;;;;;;;;;;;;;8429996;28;20395;-84
2024/01/31 05:32:23;;;;;;;;;;;;;;;;;;8428169;28;19977;-83
2024/01/31 05:36:24;;;;;;;;;;;;;;;;;;8430684;28;19920;-83
2024/01/31 05:40:26;;;;;;;;;;;;;;;;;;8430585;28;19920;-83
2024/01/31 05:44:29;;;;;;;;;;;;;;;;;;8430401;28;19920;-83
2024/01/31 05:48:31;;;;;;;;;;;;;;;;;;8430370;28;19920;-83
2024/01/31 05:52:34;;;;;;;;;;;;;;;;;;8432739;28;19920;-83
2024/01/31 05:56:45;;;;;;;;;;;;;;;;;;8436399;28;19920;-83
2024/01/31 06:00:49;;;;;;;;;;;;;;;;;;8436026;28;20022;-83
2024/01/31 06:04:51;;;;;;;;;;;;;;;;;;8434266;28;19928;-83
2024/01/31 06:08:52;;;;;;;;;;;;;;;;;;8433894;28;20358;-82
2024/01/31 06:12:56;;;;;;;;;;;;;;;;;;8435885;28;19927;-83
2024/01/31 06:17:00;;;;;;;;;;;;;;;;;;8436077;28;20403;-83
2024/01/31 06:21:02;;;;;;;;;;;;;;;;;;8435886;28;20299;-83
2024/01/31 06:25:05;;;;;;;;;;;;;;;;;;8435797;28;19920;-83
2024/01/31 06:29:07;;;;;;;;;;;;;;;;;;8435558;28;20022;-82
2024/01/31 06:33:10;;;;;;;;;;;;;;;;;;8435404;28;19974;-82
2024/01/31 06:37:12;;;;;;;;;;;;;;;;;;8435273;28;19920;-83
2024/01/31 06:41:20;;;;;;;;;;;;;;;;;;8435275;28;19926;-83
2024/01/31 06:45:24;;;;;;;;;;;;;;;;;;8435026;28;19920;-83
2024/01/31 06:49:28;;;;;;;;;;;;;;;;;;8434809;28;19920;-83
2024/01/31 06:53:29;;;;;;;;;;;;;;;;;;8434694;28;19920;-82
2024/01/31 06:57:34;;;;;;;;;;;;;;;;;;8434405;28;19924;-83
2024/01/31 07:01:36;;;;;;;;;;;;;;;;;;8434388;28;19924;-83
2024/01/31 07:05:40;;;;;;;;;;;;;;;;;;8433898;28;19928;-83
2024/01/31 07:09:42;;;;;;;;;;;;;;;;;;8434480;28;20395;-83
2024/01/31 07:13:44;;;;;;;;;;;;;;;;;;8434141;28;20026;-82
2024/01/31 07:17:45;;;;;;;;;;;;;;;;;;8433814;28;19920;-82
2024/01/31 07:21:49;;;;;;;;;;;;;;;;;;8433920;28;19920;-82
2024/01/31 07:25:50;;;;;;;;;;;;;;;;;;8433870;28;20334;-82
2024/01/31 07:29:52;;;;;;;;;;;;;;;;;;8432425;28;20028;-82
2024/01/31 07:34:00;;;;;;;;;;;;;;;;;;8431559;28;20291;-82
2024/01/31 07:38:03;;;;;;;;;;;;;;;;;;8433197;28;19966;-82
2024/01/31 07:42:05;;;;;;;;;;;;;;;;;;8432592;28;20380;-82
2024/01/31 07:46:07;;;;;;;;;;;;;;;;;;8433036;28;19969;-82
2024/01/31 07:50:09;;;;;;;;;;;;;;;;;;8432762;28;19927;-82
2024/01/31 07:54:30;;;;;;;;;;;;;;;;;;8433049;28;19924;-82
2024/01/31 07:58:34;;;;;;;;;;;;;;;;;;8432751;28;20007;-82
2024/01/31 08:02:36;;;;;;;;;;;;;;;;;;8432343;28;19955;-82
2024/01/31 08:06:38;;;;;;;;;;;;;;;;;;8432607;28;19920;-82
2024/01/31 08:10:40;;;;;;;;;;;;;;;;;;8432523;28;19920;-82
2024/01/31 08:14:44;;;;;;;;;;;;;;;;;;8431463;28;19969;-82
2024/01/31 08:18:45;;;;;;;;;;;;;;;;;;8437816;28;19919;-82
2024/01/31 08:22:47;;;;;;;;;;;;;;;;;;8442097;28;20303;-82
2024/01/31 08:27:00;;;;;;;;;;;;;;;;;;8453747;28;19926;-82
2024/01/31 08:31:12;;;;;;;;;;;;;;;;;;8451756;28;19923;-82
2024/01/31 08:35:14;;;;;;;;;;;;;;;;;;8458195;28;20010;-82
2024/01/31 08:39:16;;;;;;;;;;;;;;;;;;8445268;28;20007;-82
2024/01/31 08:43:48;;;;;;;;;;;;;;;;;;8431334;28;19973;-82
2024/01/31 08:52:37;;;;;;;;;;;;;;;;;;8443990;28;19958;-82
2024/01/31 08:56:39;;;;;;;;;;;;;;;;;;8451131;28;19920;-82
2024/01/31 09:05:26;;;;;;;;;;;;;;;;;;8453210;28;20325;-82
2024/01/31 09:09:30;;;;;;;;;;;;;;;;;;8450834;28;20019;-82
2024/01/31 09:13:31;;;;;;;;;;;;;;;;;;8455305;28;20273;-82
2024/01/31 09:17:33;;;;;;;;;;;;;;;;;;8460278;28;19923;-83
2024/01/31 09:21:35;;;;;;;;;;;;;;;;;;8464213;28;20010;-83
2024/01/31 09:25:38;;;;;;;;;;;;;;;;;;8460388;28;19930;-82
2024/01/31 09:29:41;;;;;;;;;;;;;;;;;;8464375;28;19927;-82
2024/01/31 09:43:17;;;;;;;;;;;;;;;;;;8450833;28;20407;-82
2024/01/31 09:47:19;;;;;;;;;;;;;;;;;;8463557;28;19924;-82
2024/01/31 09:51:22;;;;;;;;;;;;;;;;;;8437175;28;19989;-83
2024/01/31 09:55:26;;;;;;;;;;;;;;;;;;8453783;28;20003;-82
2024/01/31 09:59:29;;;;;;;;;;;;;;;;;;8443224;28;19954;-83
2024/01/31 10:03:31;;;;;;;;;;;;;;;;;;8449950;28;19934;-83
2024/01/31 10:07:33;;;;;;;;;;;;;;;;;;8448016;28;19920;-83
2024/01/31 10:11:35;;;;;;;;;;;;;;;;;;8459355;28;19920;-83
2024/01/31 10:15:38;;;;;;;;;;;;;;;;;;8461011;28;20372;-83
2024/01/31 10:19:40;;;;;;;;;;;;;;;;;;8454561;27;19920;-82
2024/01/31 10:23:42;;;;;;;;;;;;;;;;;;8448049;28;19924;-82
2024/01/31 10:27:45;;;;;;;;;;;;;;;;;;8457139;28;19920;-82
2024/01/31 10:31:49;;;;;;;;;;;;;;;;;;8459650;28;20028;-82
2024/01/31 10:35:52;;;;;;;;;;;;;;;;;;8463621;28;19927;-83
2024/01/31 10:39:53;;;;;;;;;;;;;;;;;;8426786;28;19944;-83
2024/01/31 10:43:57;;;;;;;;;;;;;;;;;;8439591;28;19931;-83
2024/01/31 10:48:01;;;;;;;;;;;;;;;;;;8453088;28;20031;-83
2024/01/31 10:52:04;;;;;;;;;;;;;;;;;;8456023;28;20023;-83
2024/01/31 10:56:06;;;;;;;;;;;;;;;;;;8446145;27;20003;-83
2024/01/31 11:00:09;;;;;;;;;;;;;;;;;;8433930;28;19934;-83
2024/01/31 11:04:14;;;;;;;;;;;;;;;;;;8451618;28;20303;-83
2024/01/31 11:08:33;;;;;;;;;;;;;;;;;;8436794;28;19920;-83
2024/01/31 11:12:41;;;;;;;;;;;;;;;;;;8463033;28;19927;-83
2024/01/31 11:16:45;;;;;;;;;;;;;;;;;;8450779;28;19942;-82
2024/01/31 11:20:49;;;;;;;;;;;;;;;;;;8433221;28;19963;-82
2024/01/31 11:24:52;;;;;;;;;;;;;;;;;;8435160;28;19920;-82
2024/01/31 11:28:55;;;;;;;;;;;;;;;;;;8452103;28;19923;-81
2024/01/31 11:32:57;;;;;;;;;;;;;;;;;;8446142;28;20010;-82
2024/01/31 11:37:00;;;;;;;;;;;;;;;;;;8437037;28;19965;-82
2024/01/31 11:41:15;;;;;;;;;;;;;;;;;;8451408;28;19919;-82
2024/01/31 11:45:17;;;;;;;;;;;;;;;;;;8444767;28;20395;-82
2024/01/31 11:49:20;;;;;;;;;;;;;;;;;;8438163;28;20245;-83
2024/01/31 11:53:24;;;;;;;;;;;;;;;;;;8437940;28;19973;-82
2024/01/31 11:57:26;;;;;;;;;;;;;;;;;;8432709;28;19920;-82
2024/01/31 12:01:29;;;;;;;;;;;;;;;;;;8465001;28;19999;-82
2024/01/31 12:05:31;;;;;;;;;;;;;;;;;;8464433;28;19971;-82
2024/01/31 12:09:35;;;;;;;;;;;;;;;;;;8461065;28;20345;-82
2024/01/31 12:13:36;;;;;;;;;;;;;;;;;;8445393;28;20014;-82
2024/01/31 12:17:38;;;;;;;;;;;;;;;;;;8462538;28;20383;-82
2024/01/31 12:21:41;;;;;;;;;;;;;;;;;;8463434;28;20346;-82
2024/01/31 12:25:44;;;;;;;;;;;;;;;;;;8465007;28;19920;-82
2024/01/31 12:30:11;;;;;;;;;;;;;;;;;;8465479;28;19920;-83
2024/01/31 12:34:13;;;;;;;;;;;;;;;;;;8465463;28;19919;-83
2024/01/31 12:38:25;;;;;;;;;;;;;;;;;;8452642;28;19980;-83
2024/01/31 12:42:29;;;;;;;;;;;;;;;;;;8439143;28;20398;-83
2024/01/31 12:46:31;;;;;;;;;;;;;;;;;;8451453;28;19927;-83
2024/01/31 12:50:33;;;;;;;;;;;;;;;;;;8451140;28;20348;-83
2024/01/31 12:54:35;;;;;;;;;;;;;;;;;;8456636;28;19924;-83
2024/01/31 12:58:38;;;;;;;;;;;;;;;;;;8462356;28;19927;-83
2024/01/31 13:02:40;;;;;;;;;;;;;;;;;;8444729;28;19970;-82
2024/01/31 13:06:42;;;;;;;;;;;;;;;;;;8456996;28;19920;-82
2024/01/31 13:10:44;;;;;;;;;;;;;;;;;;8441597;28;19931;-82
2024/01/31 13:14:47;;;;;;;;;;;;;;;;;;8440611;28;19928;-83
2024/01/31 13:18:50;;;;;;;;;;;;;;;;;;8453043;28;20383;-83
2024/01/31 13:23:16;;;;;;;;;;;;;;;;;;8439462;28;19965;-84
2024/01/31 13:27:18;;;;;;;;;;;;;;;;;;8449910;28;20015;-83
2024/01/31 13:31:21;;;;;;;;;;;;;;;;;;8435149;28;20342;-84
2024/01/31 13:35:23;;;;;;;;;;;;;;;;;;8449336;28;20388;-83
2024/01/31 13:39:25;;;;;;;;;;;;;;;;;;8444086;28;19947;-83
2024/01/31 13:43:27;;;;;;;;;;;;;;;;;;8451741;28;19923;-83
2024/01/31 13:47:30;;;;;;;;;;;;;;;;;;8449309;28;19920;-83
2024/01/31 13:51:32;;;;;;;;;;;;;;;;;;8438277;28;20010;-83
2024/01/31 13:55:34;;;;;;;;;;;;;;;;;;8448270;28;20015;-83
2024/01/31 13:59:36;;;;;;;;;;;;;;;;;;8440632;28;20360;-83
2024/01/31 14:03:39;;;;;;;;;;;;;;;;;;8449946;28;19937;-83
2024/01/31 14:07:41;;;;;;;;;;;;;;;;;;8454888;28;20196;-82
2024/01/31 14:11:43;;;;;;;;;;;;;;;;;;8443349;28;19920;-83
2024/01/31 14:15:45;;;;;;;;;;;;;;;;;;8439264;28;20481;-82
2024/01/31 14:19:48;;;;;;;;;;;;;;;;;;8457223;28;19920;-83
2024/01/31 14:23:50;;;;;;;;;;;;;;;;;;8460470;28;19959;-83
2024/01/31 14:27:52;;;;;;;;;;;;;;;;;;8452979;28;19927;-83
2024/01/31 14:31:54;;;;;;;;;;;;;;;;;;8457282;28;20006;-83
2024/01/31 14:35:57;;;;;;;;;;;;;;;;;;8445934;28;19924;-83
2024/01/31 14:39:59;;;;;;;;;;;;;;;;;;8438773;28;19924;-83
2024/01/31 14:44:01;;;;;;;;;;;;;;;;;;8458064;28;19927;-83
2024/01/31 14:48:03;;;;;;;;;;;;;;;;;;8455491;28;20348;-83
2024/01/31 14:52:17;;;;;;;;;;;;;;;;;;8455083;28;20022;-83
2024/01/31 14:56:19;;;;;;;;;;;;;;;;;;8459243;28;19923;-83
2024/01/31 15:00:21;;;;;;;;;;;;;;;;;;8452841;28;20410;-83
2024/01/31 15:04:23;;;;;;;;;;;;;;;;;;8435104;28;20441;-82
2024/01/31 15:08:29;;;;;;;;;;;;;;;;;;8449196;28;19923;-82
2024/01/31 15:12:33;;;;;;;;;;;;;;;;;;8464881;28;20392;-82
2024/01/31 15:16:45;;;;;;;;;;;;;;;;;;8463345;28;20090;-82
2024/01/31 15:20:47;;;;;;;;;;;;;;;;;;8458822;28;19942;-82
2024/01/31 15:24:51;;;;;;;;;;;;;;;;;;8467924;28;19923;-82
2024/01/31 15:28:52;;;;;;;;;;;;;;;;;;8467242;28;20030;-82
2024/01/31 15:32:54;;;;;;;;;;;;;;;;;;8467182;28;19965;-82
2024/01/31 15:36:58;;;;;;;;;;;;;;;;;;8465590;28;19940;-81
2024/01/31 15:41:03;;;;;;;;;;;;;;;;;;8466842;28;19946;-81
2024/01/31 15:45:05;;;;;;;;;;;;;;;;;;8447925;28;20034;-82
2024/01/31 15:49:07;;;;;;;;;;;;;;;;;;8466527;28;19920;-82
2024/01/31 15:53:09;;;;;;;;;;;;;;;;;;8466501;28;20449;-82
2024/01/31 15:57:12;;;;;;;;;;;;;;;;;;8465830;28;19935;-82
2024/01/31 16:01:13;;;;;;;;;;;;;;;;;;8464552;28;19964;-82
2024/01/31 16:05:15;;;;;;;;;;;;;;;;;;8465221;28;20702;-82
2024/01/31 16:09:23;;;;;;;;;;;;;;;;;;8462889;28;19919;-83
2024/01/31 16:13:27;;;;;;;;;;;;;;;;;;8463857;28;19927;-82
2024/01/31 16:17:29;;;;;;;;;;;;;;;;;;8465211;28;20026;-82
2024/01/31 16:21:40;;;;;;;;;;;;;;;;;;8465268;28;19924;-82
2024/01/31 16:25:52;;;;;;;;;;;;;;;;;;8465386;28;19970;-82
2024/01/31 16:29:55;;;;;;;;;;;;;;;;;;8465537;28;20405;-81
2024/01/31 16:33:57;;;;;;;;;;;;;;;;;;8465075;28;20025;-79
2024/01/31 16:37:58;;;;;;;;;;;;;;;;;;8463895;28;19923;-79
2024/01/31 16:42:00;;;;;;;;;;;;;;;;;;8465232;28;20010;-79
2024/01/31 16:46:04;;;;;;;;;;;;;;;;;;8442937;28;19927;-80
2024/01/31 16:50:06;;;;;;;;;;;;;;;;;;8447458;28;20014;-80
2024/01/31 16:54:08;;;;;;;;;;;;;;;;;;8457360;28;19920;-79
2024/01/31 16:58:10;;;;;;;;;;;;;;;;;;8436244;28;20011;-80
2024/01/31 17:02:12;;;;;;;;;;;;;;;;;;8413079;28;19979;-82
2024/01/31 17:06:14;;;;;;;;;;;;;;;;;;8432870;28;19942;-83
2024/01/31 17:10:24;;;;;;;;;;;;;;;;;;8442994;28;19924;-81
2024/01/31 17:14:26;;;;;;;;;;;;;;;;;;8447604;28;20003;-81
2024/01/31 17:18:38;;;;;;;;;;;;;;;;;;8442337;28;20590;-81
2024/01/31 17:22:40;;;;;;;;;;;;;;;;;;8461838;28;21978;-82
2024/01/31 17:26:42;;;;;;;;;;;;;;;;;;8439951;28;19965;-82
2024/01/31 17:30:44;;;;;;;;;;;;;;;;;;8447836;28;19970;-82
2024/01/31 17:34:47;;;;;;;;;;;;;;;;;;8440023;28;20026;-81
2024/01/31 17:38:49;;;;;;;;;;;;;;;;;;8450087;28;19926;-82
2024/01/31 17:42:51;;;;;;;;;;;;;;;;;;8448486;28;20372;-82
2024/01/31 17:46:53;;;;;;;;;;;;;;;;;;8434298;28;20444;-82
2024/01/31 17:50:56;;;;;;;;;;;;;;;;;;8444225;28;20348;-82
2024/01/31 17:54:58;;;;;;;;;;;;;;;;;;8468906;28;19919;-82
2024/01/31 17:59:00;;;;;;;;;;;;;;;;;;8456838;28;20376;-82
2024/01/31 18:03:04;;;;;;;;;;;;;;;;;;8459940;28;19920;-81
2024/01/31 18:07:08;;;;;;;;;;;;;;;;;;8463316;28;20338;-82
2024/01/31 18:11:10;;;;;;;;;;;;;;;;;;8449990;28;19931;-82
2024/01/31 18:15:14;;;;;;;;;;;;;;;;;;8465270;28;19920;-82
2024/01/31 18:19:16;;;;;;;;;;;;;;;;;;8459407;28;19924;-81
2024/01/31 18:23:19;;;;;;;;;;;;;;;;;;8457114;28;20319;-81
2024/01/31 18:27:21;;;;;;;;;;;;;;;;;;8443640;28;19926;-81
2024/01/31 18:31:24;;;;;;;;;;;;;;;;;;8457472;28;19919;-81
2024/01/31 18:35:25;;;;;;;;;;;;;;;;;;8455648;28;19924;-81
2024/01/31 18:39:28;;;;;;;;;;;;;;;;;;8442371;28;19919;-81
2024/01/31 18:43:30;;;;;;;;;;;;;;;;;;8467807;28;20026;-81
2024/01/31 18:47:35;;;;;;;;;;;;;;;;;;8453556;28;19919;-81
2024/01/31 18:51:37;;;;;;;;;;;;;;;;;;8464480;28;19919;-81
2024/01/31 18:55:40;;;;;;;;;;;;;;;;;;8460810;28;20014;-81
2024/01/31 18:59:42;;;;;;;;;;;;;;;;;;8449942;28;20006;-81
2024/01/31 19:03:44;;;;;;;;;;;;;;;;;;8444126;28;20378;-81
2024/01/31 19:07:47;;;;;;;;;;;;;;;;;;8417067;28;19959;-81
2024/01/31 19:11:50;;;;;;;;;;;;;;;;;;8410365;28;20384;-81
2024/01/31 19:15:52;;;;;;;;;;;;;;;;;;8416090;28;19982;-81
2024/01/31 19:19:55;;;;;;;;;;;;;;;;;;8411310;28;20029;-81
2024/01/31 19:23:57;;;;;;;;;;;;;;;;;;8407790;28;19963;-82
2024/01/31 19:28:00;;;;;;;;;;;;;;;;;;8416574;28;20006;-82
2024/01/31 19:32:01;;;;;;;;;;;;;;;;;;8426488;28;20437;-82
2024/01/31 19:36:04;;;;;;;;;;;;;;;;;;8401915;28;20415;-82
2024/01/31 19:40:07;;;;;;;;;;;;;;;;;;8413547;28;19920;-82
2024/01/31 19:44:10;;;;;;;;;;;;;;;;;;8396894;28;19977;-82
2024/01/31 19:48:12;;;;;;;;;;;;;;;;;;8408073;28;20007;-82
2024/01/31 19:52:14;;;;;;;;;;;;;;;;;;8418782;28;19969;-82
2024/01/31 19:56:16;;;;;;;;;;;;;;;;;;8420023;28;19928;-82
2024/01/31 20:00:20;;;;;;;;;;;;;;;;;;8403288;28;19927;-82
2024/01/31 20:04:22;;;;;;;;;;;;;;;;;;8438415;28;19927;-82
2024/01/31 20:08:24;;;;;;;;;;;;;;;;;;8450750;28;19920;-83
2024/01/31 20:12:27;;;;;;;;;;;;;;;;;;8454325;28;19927;-82
2024/01/31 20:16:30;;;;;;;;;;;;;;;;;;8451903;28;20062;-82
2024/01/31 20:20:32;;;;;;;;;;;;;;;;;;8465699;28;20444;-82
2024/01/31 20:24:34;;;;;;;;;;;;;;;;;;8466072;28;19958;-82
2024/01/31 20:28:36;;;;;;;;;;;;;;;;;;8465645;28;19926;-82
2024/01/31 20:33:04;;;;;;;;;;;;;;;;;;8466035;28;20405;-83
2024/01/31 20:37:09;;;;;;;;;;;;;;;;;;8465458;28;19920;-83
2024/01/31 20:41:11;;;;;;;;;;;;;;;;;;8465490;28;19926;-83
2024/01/31 20:45:44;;;;;;;;;;;;;;;;;;8447033;28;19989;-83
2024/01/31 20:49:47;;;;;;;;;;;;;;;;;;8465407;28;19919;-82
2024/01/31 20:58:29;;;;;;;;;;;;;;;;;;8465067;28;20014;-82
2024/01/31 21:02:31;;;;;;;;;;;;;;;;;;8464749;28;19926;-82
2024/01/31 21:06:33;;;;;;;;;;;;;;;;;;8464805;28;19926;-82
2024/01/31 21:10:37;;;;;;;;;;;;;;;;;;8464730;28;20018;-82
2024/01/31 21:14:40;;;;;;;;;;;;;;;;;;8464932;28;19984;-82
2024/01/31 21:18:42;;;;;;;;;;;;;;;;;;8464629;28;19973;-81
2024/01/31 21:22:44;;;;;;;;;;;;;;;;;;8470249;28;19981;-81
2024/01/31 21:27:20;;;;;;;;;;;;;;;;;;8475741;28;19923;-82
2024/01/31 21:31:24;;;;;;;;;;;;;;;;;;8469876;28;19924;-83
2024/01/31 21:35:26;;;;;;;;;;;;;;;;;;8475793;28;19919;-83
2024/01/31 21:39:28;;;;;;;;;;;;;;;;;;8475486;28;20018;-83
2024/01/31 21:43:30;;;;;;;;;;;;;;;;;;8475691;28;20341;-83
2024/01/31 21:47:33;;;;;;;;;;;;;;;;;;8475340;28;20023;-83
2024/01/31 21:51:35;;;;;;;;;;;;;;;;;;8475552;28;19926;-83
2024/01/31 21:56:08;;;;;;;;;;;;;;;;;;8475705;28;19923;-83
2024/01/31 22:00:11;;;;;;;;;;;;;;;;;;8475280;28;20386;-83
2024/01/31 22:04:14;;;;;;;;;;;;;;;;;;8475454;28;19919;-83
2024/01/31 22:08:16;;;;;;;;;;;;;;;;;;8475273;28;19933;-82
2024/01/31 22:12:18;;;;;;;;;;;;;;;;;;8475175;28;20019;-83
2024/01/31 22:16:20;;;;;;;;;;;;;;;;;;8475148;28;19978;-81
2024/01/31 22:20:23;;;;;;;;;;;;;;;;;;8475409;28;19927;-81
2024/01/31 22:24:25;;;;;;;;;;;;;;;;;;8474853;28;20454;-81
2024/01/31 22:28:27;;;;;;;;;;;;;;;;;;8474599;28;19919;-82
2024/01/31 22:32:29;;;;;;;;;;;;;;;;;;8474178;28;19959;-82
2024/01/31 22:36:34;;;;;;;;;;;;;;;;;;8468998;28;20372;-82
2024/01/31 22:40:36;;;;;;;;;;;;;;;;;;8469473;28;20014;-82
2024/01/31 22:44:37;;;;;;;;;;;;;;;;;;8469305;28;19920;-82
2024/01/31 22:48:39;;;;;;;;;;;;;;;;;;8469039;28;19958;-82
2024/01/31 22:52:44;;;;;;;;;;;;;;;;;;8469219;28;20295;-82
2024/01/31 22:56:47;;;;;;;;;;;;;;;;;;8467964;28;20394;-81
2024/01/31 23:00:49;;;;;;;;;;;;;;;;;;8468057;28;20375;-82
2024/01/31 23:04:50;;;;;;;;;;;;;;;;;;8468595;28;19927;-82
2024/01/31 23:08:54;;;;;;;;;;;;;;;;;;8468550;28;19920;-82
2024/01/31 23:12:57;;;;;;;;;;;;;;;;;;8468241;28;20014;-81
2024/01/31 23:16:59;;;;;;;;;;;;;;;;;;8468234;28;19927;-81
2024/01/31 23:21:05;;;;;;;;;;;;;;;;;;8468065;28;19920;-81
2024/01/31 23:25:08;;;;;;;;;;;;;;;;;;8467845;28;19959;-82
2024/01/31 23:29:11;;;;;;;;;;;;;;;;;;8467757;28;19965;-81
2024/01/31 23:33:12;;;;;;;;;;;;;;;;;;8467700;28;20034;-81
2024/01/31 23:37:14;;;;;;;;;;;;;;;;;;8467438;28;20467;-82
2024/01/31 23:41:17;;;;;;;;;;;;;;;;;;8467459;28;19926;-82
2024/01/31 23:45:19;;;;;;;;;;;;;;;;;;8449045;28;19966;-82
2024/01/31 23:49:21;;;;;;;;;;;;;;;;;;8467456;28;20407;-82
2024/01/31 23:53:23;;;;;;;;;;;;;;;;;;8467130;28;20403;-81
2024/01/31 23:57:26;;;;;;;;;;;;;;;;;;8466877;28;19969;-81
